Arlington, Arizona
Current Conditions -  °F | °C
As of 7:55 AM on Saturday 25 Oct 2014 (Local Time) from KBXK Reporting Station
Broken Clouds Broken Clouds  
Wind Chill: 68°   Ceiling: 11000
Heat Index: 68°   Visibility: 10mi
Dew Point: 46°   Wind: 5mph
Humidity: 46%   Direction: 360°N
Pressure: 30.03"   Gusts: NA
Location:  33.33°N, 112.77°W
Report Text: KBXK 251455Z AUTO 36004KT 10SM BKN110 20/08 A3003 RMK AO1
Loading
Personal Weather Stations






























Interactive Weather Map
Tropical Storm Tracking
New forecast layout! Learn more

10-Day Weather Forecast

Advertisements
Track Severe Weather on mobile